createdAt,value
2022-08-30T00:00:41.450Z,16.70
2022-08-30T00:03:14.538Z,16.70
2022-08-30T00:05:43.501Z,16.70
2022-08-30T00:08:11.736Z,16.50
2022-08-30T00:10:42.143Z,16.50
2022-08-30T00:13:12.176Z,16.60
2022-08-30T00:15:41.413Z,16.60
2022-08-30T00:18:11.595Z,16.50
2022-08-30T00:20:39.862Z,16.40
2022-08-30T00:23:08.628Z,16.30
2022-08-30T00:25:36.912Z,16.30
2022-08-30T00:28:05.184Z,16.20
2022-08-30T00:30:33.670Z,16.10
2022-08-30T00:33:01.846Z,16.10
2022-08-30T00:35:31.544Z,16.10
2022-08-30T00:37:59.929Z,16.00
2022-08-30T00:40:29.057Z,16.00
2022-08-30T00:42:59.490Z,15.90
2022-08-30T00:45:30.701Z,15.90
2022-08-30T00:48:00.197Z,15.90
2022-08-30T00:50:34.827Z,15.90
2022-08-30T00:53:07.108Z,16.00
2022-08-30T00:55:35.594Z,16.00
2022-08-30T00:58:09.613Z,16.00
2022-08-30T01:00:38.087Z,16.10
2022-08-30T01:03:09.333Z,16.00
2022-08-30T01:05:40.334Z,15.90
2022-08-30T01:08:08.543Z,15.90
2022-08-30T01:10:37.676Z,16.00
2022-08-30T01:13:07.275Z,15.90
2022-08-30T01:15:35.780Z,15.90
2022-08-30T01:18:07.740Z,16.00
2022-08-30T01:20:45.806Z,16.00
2022-08-30T01:23:18.421Z,16.00
2022-08-30T01:25:48.099Z,15.90
2022-08-30T01:28:21.074Z,15.80
2022-08-30T01:30:49.484Z,15.80
2022-08-30T01:33:20.030Z,15.80
2022-08-30T01:35:53.397Z,15.80
2022-08-30T01:38:25.770Z,15.80
2022-08-30T01:40:59.272Z,15.80
2022-08-30T01:43:28.340Z,15.70
2022-08-30T01:45:56.375Z,15.70
2022-08-30T01:48:28.248Z,15.70
2022-08-30T01:50:59.439Z,15.70
2022-08-30T01:53:29.055Z,15.70
2022-08-30T01:55:57.014Z,15.60
2022-08-30T01:58:25.702Z,15.60
2022-08-30T02:00:54.722Z,15.60
2022-08-30T02:03:23.033Z,15.60
2022-08-30T02:05:51.843Z,15.60
2022-08-30T02:08:19.988Z,15.60
2022-08-30T02:10:49.249Z,15.40
2022-08-30T02:13:17.585Z,15.40
2022-08-30T02:15:45.889Z,15.40
2022-08-30T02:18:13.854Z,15.40
2022-08-30T02:20:41.824Z,15.20
2022-08-30T02:23:09.848Z,15.10
2022-08-30T02:25:37.865Z,15.20
2022-08-30T02:28:07.391Z,15.10
2022-08-30T02:30:36.460Z,15.10
2022-08-30T02:33:04.957Z,15.20
2022-08-30T02:35:32.942Z,15.10
2022-08-30T02:38:01.016Z,15.10
2022-08-30T02:40:29.073Z,15.30
2022-08-30T02:42:57.135Z,15.30
2022-08-30T02:45:27.171Z,15.30
2022-08-30T02:47:56.555Z,15.30
2022-08-30T02:50:24.702Z,15.30
2022-08-30T02:52:52.885Z,15.30
2022-08-30T02:55:22.739Z,15.00
2022-08-30T02:57:50.943Z,15.00
2022-08-30T03:00:21.133Z,15.00
2022-08-30T03:02:50.503Z,14.80
2022-08-30T03:05:19.514Z,14.70
2022-08-30T03:07:48.322Z,14.80
2022-08-30T03:10:16.731Z,14.80
2022-08-30T03:12:44.856Z,14.70
2022-08-30T03:15:15.291Z,14.70
2022-08-30T03:17:43.670Z,14.70
2022-08-30T03:20:14.259Z,14.70
2022-08-30T03:22:42.193Z,14.60
2022-08-30T03:25:10.729Z,14.50
2022-08-30T03:27:38.687Z,14.50
2022-08-30T03:30:08.555Z,14.50
2022-08-30T03:32:36.997Z,14.50
2022-08-30T03:35:05.581Z,14.50
2022-08-30T03:37:35.192Z,14.50
2022-08-30T03:40:04.224Z,14.40
2022-08-30T03:42:34.100Z,14.30
2022-08-30T03:45:02.478Z,14.20
2022-08-30T03:47:30.822Z,14.10
2022-08-30T03:49:59.138Z,14.10
2022-08-30T03:52:28.559Z,14.10
2022-08-30T03:54:57.845Z,14.20
2022-08-30T03:57:25.754Z,14.10
2022-08-30T03:59:53.690Z,14.10
2022-08-30T04:02:22.022Z,14.00
2022-08-30T04:04:49.956Z,14.00
2022-08-30T04:07:19.109Z,13.90
2022-08-30T04:09:47.613Z,13.80
2022-08-30T04:12:18.428Z,14.00
2022-08-30T04:14:50.748Z,14.10
2022-08-30T04:17:18.694Z,14.20
2022-08-30T04:19:46.647Z,14.20
2022-08-30T04:22:14.656Z,14.20
2022-08-30T04:24:42.904Z,14.20
2022-08-30T04:27:10.871Z,14.20
2022-08-30T04:29:40.298Z,14.10
2022-08-30T04:32:08.413Z,13.80
2022-08-30T04:34:36.557Z,13.90
2022-08-30T04:37:04.488Z,13.90
2022-08-30T04:39:33.703Z,13.90
2022-08-30T04:42:03.275Z,13.80
2022-08-30T04:44:32.410Z,13.80
2022-08-30T04:47:02.412Z,13.80
2022-08-30T04:49:33.067Z,13.80
2022-08-30T04:52:01.109Z,13.80
2022-08-30T04:54:29.102Z,13.80
2022-08-30T04:56:57.052Z,13.70
2022-08-30T04:59:25.058Z,13.80
2022-08-30T05:01:53.077Z,13.70
2022-08-30T05:04:22.397Z,13.80
2022-08-30T05:06:50.288Z,13.90
2022-08-30T05:09:18.530Z,13.80
2022-08-30T05:11:47.027Z,13.80
2022-08-30T05:14:15.193Z,13.80
2022-08-30T05:16:43.725Z,13.90
2022-08-30T05:19:11.858Z,13.90
2022-08-30T05:21:41.598Z,14.00
2022-08-30T05:24:09.564Z,14.20
2022-08-30T05:26:39.839Z,14.30
2022-08-30T05:29:07.898Z,14.30
2022-08-30T05:31:37.487Z,14.20
2022-08-30T05:34:06.024Z,14.20
2022-08-30T05:36:37.010Z,14.10
2022-08-30T05:39:09.069Z,14.10
2022-08-30T05:41:37.881Z,14.10
2022-08-30T05:44:08.156Z,14.30
2022-08-30T05:46:37.266Z,14.30
2022-08-30T05:49:07.900Z,14.40
2022-08-30T05:51:43.132Z,14.50
2022-08-30T05:54:14.261Z,14.70
2022-08-30T05:56:44.460Z,14.90
2022-08-30T05:59:13.516Z,15.10
2022-08-30T06:01:43.830Z,15.20
2022-08-30T06:04:13.820Z,15.40
2022-08-30T06:06:43.846Z,15.50
2022-08-30T06:09:14.476Z,15.50
2022-08-30T06:11:42.727Z,15.70
2022-08-30T06:14:10.937Z,15.70
2022-08-30T06:16:40.332Z,15.70
2022-08-30T06:19:10.874Z,15.60
2022-08-30T06:21:39.444Z,15.50
2022-08-30T06:24:09.063Z,15.50
2022-08-30T06:26:41.737Z,15.70
2022-08-30T06:29:10.741Z,15.70
2022-08-30T06:31:39.307Z,15.80
2022-08-30T06:34:08.278Z,15.90
2022-08-30T06:36:36.353Z,15.80
2022-08-30T06:39:04.771Z,16.10
2022-08-30T06:41:35.373Z,16.30
2022-08-30T06:44:06.890Z,16.50
2022-08-30T06:46:38.709Z,16.60
2022-08-30T06:49:09.050Z,16.40
2022-08-30T06:51:39.985Z,16.40
2022-08-30T06:54:12.022Z,16.50
2022-08-30T06:56:48.755Z,16.80
2022-08-30T06:59:27.736Z,17.00
2022-08-30T07:01:56.274Z,17.20
2022-08-30T07:04:24.354Z,17.30
2022-08-30T07:06:52.413Z,17.30
2022-08-30T07:09:20.386Z,17.40
2022-08-30T07:11:52.124Z,17.60
2022-08-30T07:14:20.469Z,17.60
2022-08-30T07:16:50.817Z,17.70
2022-08-30T07:19:20.673Z,17.90
2022-08-30T07:21:50.724Z,18.00
2022-08-30T07:24:20.113Z,18.10
2022-08-30T07:26:51.697Z,18.20
2022-08-30T07:29:21.184Z,18.20
2022-08-30T07:31:50.603Z,18.20
2022-08-30T07:34:20.456Z,18.30
2022-08-30T07:36:50.284Z,18.60
2022-08-30T07:39:18.417Z,18.80
2022-08-30T07:41:46.489Z,19.10
2022-08-30T07:44:14.429Z,19.20
2022-08-30T07:46:43.538Z,19.70
2022-08-30T07:49:13.701Z,20.10
2022-08-30T07:51:42.251Z,20.40
2022-08-30T07:54:10.407Z,20.50
2022-08-30T07:56:38.546Z,20.80
2022-08-30T07:59:06.535Z,20.60
2022-08-30T08:01:36.962Z,20.90
2022-08-30T08:04:05.111Z,21.10
2022-08-30T08:06:38.915Z,21.50
2022-08-30T08:09:07.126Z,21.70
2022-08-30T08:11:35.836Z,21.50
2022-08-30T08:14:05.172Z,21.60
2022-08-30T08:16:37.291Z,22.00
2022-08-30T08:19:09.045Z,22.20
2022-08-30T08:21:38.531Z,21.80
2022-08-30T08:24:06.814Z,21.70
2022-08-30T08:26:35.853Z,21.80
2022-08-30T08:29:03.989Z,21.80
2022-08-30T08:31:33.772Z,21.80
2022-08-30T08:34:05.342Z,22.00
2022-08-30T08:36:34.413Z,22.10
2022-08-30T08:39:06.427Z,22.30
2022-08-30T08:41:47.702Z,22.80
2022-08-30T08:44:29.269Z,23.30
2022-08-30T08:47:10.975Z,23.60
2022-08-30T08:49:41.536Z,23.80
2022-08-30T08:52:32.217Z,24.00
2022-08-30T08:55:08.280Z,24.10
2022-08-30T08:57:39.101Z,24.20
2022-08-30T09:00:08.932Z,24.40
2022-08-30T09:02:42.799Z,24.60
2022-08-30T09:05:15.238Z,24.40
2022-08-30T09:07:46.357Z,24.30
2022-08-30T09:10:18.315Z,24.80
2022-08-30T09:12:51.089Z,25.10
2022-08-30T09:15:22.775Z,25.30
2022-08-30T09:17:54.517Z,25.30
2022-08-30T09:20:29.139Z,25.60
2022-08-30T09:22:57.657Z,25.90
2022-08-30T09:25:29.190Z,26.10
2022-08-30T09:28:11.663Z,26.30
2022-08-30T09:30:40.430Z,26.20
2022-08-30T09:33:20.537Z,26.20
2022-08-30T09:35:52.072Z,26.20
2022-08-30T09:38:24.566Z,25.70
2022-08-30T09:40:55.820Z,26.10
2022-08-30T09:43:25.879Z,26.20
2022-08-30T09:46:09.963Z,26.30
2022-08-30T09:48:40.516Z,26.50
2022-08-30T09:51:26.409Z,26.70
2022-08-30T09:54:18.964Z,26.80
2022-08-30T09:57:01.066Z,27.20
2022-08-30T09:59:47.357Z,26.70
2022-08-30T10:02:42.529Z,26.80
2022-08-30T10:05:16.960Z,26.90
2022-08-30T10:07:50.463Z,27.10
2022-08-30T10:10:32.227Z,27.40
2022-08-30T10:13:13.386Z,27.40
2022-08-30T10:15:48.532Z,27.80
2022-08-30T10:18:29.437Z,27.90
2022-08-30T10:21:05.207Z,28.30
2022-08-30T10:23:38.499Z,28.40
2022-08-30T10:26:13.960Z,28.50
2022-08-30T10:28:52.449Z,28.40
2022-08-30T10:31:30.267Z,28.70
2022-08-30T10:34:03.862Z,28.40
2022-08-30T10:36:37.214Z,28.70
2022-08-30T10:39:07.477Z,29.10
2022-08-30T10:41:40.573Z,29.00
2022-08-30T10:44:18.357Z,28.90
2022-08-30T10:47:00.490Z,29.20
2022-08-30T10:49:32.909Z,29.50
2022-08-30T10:52:22.224Z,29.40
2022-08-30T10:54:53.963Z,29.30
2022-08-30T10:57:22.720Z,29.10
2022-08-30T10:59:58.408Z,29.40
2022-08-30T11:03:14.342Z,29.60
2022-08-30T11:06:06.357Z,30.10
2022-08-30T11:08:58.026Z,30.20
2022-08-30T11:11:38.531Z,30.20
2022-08-30T11:14:11.019Z,30.00
2022-08-30T11:16:43.232Z,30.00
2022-08-30T11:19:19.226Z,30.10
2022-08-30T11:21:49.293Z,30.20
2022-08-30T11:24:21.826Z,30.00
2022-08-30T11:26:59.346Z,29.80
2022-08-30T11:29:49.190Z,29.90
2022-08-30T11:32:41.946Z,30.30
2022-08-30T11:35:11.510Z,30.50
2022-08-30T11:37:42.318Z,30.50
2022-08-30T11:40:27.587Z,30.80
2022-08-30T11:42:57.415Z,30.80
2022-08-30T11:45:49.069Z,31.00
2022-08-30T11:48:55.717Z,31.10
2022-08-30T11:52:26.598Z,31.00
2022-08-30T11:55:04.386Z,31.00
2022-08-30T11:57:43.653Z,31.10
2022-08-30T12:00:28.568Z,31.30
2022-08-30T12:03:00.190Z,31.50
2022-08-30T12:05:51.448Z,31.70
2022-08-30T12:08:44.868Z,31.30
2022-08-30T12:11:55.780Z,31.10
2022-08-30T12:14:49.216Z,31.20
2022-08-30T12:17:42.946Z,30.80
2022-08-30T12:20:28.381Z,31.00
2022-08-30T12:22:58.686Z,31.30
2022-08-30T12:25:30.410Z,31.60
2022-08-30T12:28:13.832Z,31.80
2022-08-30T12:30:42.205Z,30.80
2022-08-30T12:33:14.092Z,30.90
2022-08-30T12:35:44.052Z,31.60
2022-08-30T12:38:27.647Z,32.00
2022-08-30T12:41:00.340Z,31.90
2022-08-30T12:43:40.277Z,31.70
2022-08-30T12:46:12.833Z,31.90
2022-08-30T12:48:44.704Z,32.20
2022-08-30T12:51:29.229Z,31.10
2022-08-30T12:54:07.917Z,31.50
2022-08-30T12:57:25.619Z,32.00
2022-08-30T13:00:01.856Z,32.50
2022-08-30T13:02:44.769Z,32.10
2022-08-30T13:05:48.187Z,32.30
2022-08-30T13:08:20.114Z,32.70
2022-08-30T13:11:01.519Z,32.30
2022-08-30T13:13:38.693Z,31.90
2022-08-30T13:16:13.363Z,31.50
2022-08-30T13:18:41.510Z,31.10
2022-08-30T13:21:29.049Z,31.70
2022-08-30T13:23:59.358Z,32.10
2022-08-30T13:26:34.115Z,32.10
2022-08-30T13:29:04.800Z,32.20
2022-08-30T13:31:38.783Z,32.40
2022-08-30T13:34:06.990Z,32.20
2022-08-30T13:36:37.905Z,32.00
2022-08-30T13:39:06.660Z,32.00
2022-08-30T13:41:36.162Z,31.90
2022-08-30T13:44:14.254Z,31.90
2022-08-30T13:46:53.352Z,31.70
2022-08-30T13:52:22.848Z,31.20
2022-08-30T13:54:51.826Z,30.80
2022-08-30T14:00:17.344Z,30.10
2022-08-30T14:02:51.595Z,30.70
2022-08-30T14:05:47.749Z,30.90
2022-08-30T14:11:00.703Z,30.20
2022-08-30T14:13:30.392Z,30.30
2022-08-30T14:18:49.071Z,30.40
2022-08-30T14:21:17.164Z,30.80
2022-08-30T14:23:49.321Z,31.00
2022-08-30T14:26:20.818Z,31.30
2022-08-30T14:28:51.929Z,31.40
2022-08-30T14:31:20.415Z,31.20
2022-08-30T14:33:48.806Z,31.40
2022-08-30T14:36:17.209Z,31.50
2022-08-30T14:38:45.246Z,31.60
2022-08-30T14:41:13.614Z,31.40
2022-08-30T14:43:41.702Z,31.40
2022-08-30T14:46:11.384Z,31.80
2022-08-30T14:48:40.265Z,31.80
2022-08-30T14:51:14.299Z,31.90
2022-08-30T14:53:42.671Z,32.00
2022-08-30T14:56:12.981Z,32.00
2022-08-30T14:58:41.155Z,31.70
2022-08-30T15:01:12.523Z,31.50
2022-08-30T15:03:42.191Z,31.50
2022-08-30T15:06:10.298Z,31.30
2022-08-30T15:08:39.484Z,31.10
2022-08-30T15:11:09.914Z,31.10
2022-08-30T15:13:38.664Z,31.00
2022-08-30T15:16:14.288Z,30.90
2022-08-30T15:18:42.408Z,30.80
2022-08-30T15:21:11.539Z,30.80
2022-08-30T15:23:40.314Z,30.80
2022-08-30T15:26:09.468Z,30.60
2022-08-30T15:28:38.206Z,30.60
2022-08-30T15:31:09.030Z,30.70
2022-08-30T15:33:39.043Z,30.60
2022-08-30T15:36:08.840Z,30.60
2022-08-30T15:38:38.033Z,30.40
2022-08-30T15:41:08.521Z,30.70
2022-08-30T15:43:37.695Z,30.80
2022-08-30T15:46:22.633Z,30.80
2022-08-30T15:48:55.248Z,30.80
2022-08-30T15:51:23.439Z,30.60
2022-08-30T15:53:53.255Z,30.60
2022-08-30T15:56:21.443Z,30.50
2022-08-30T15:58:49.502Z,30.10
2022-08-30T16:01:30.368Z,30.00
2022-08-30T16:04:00.797Z,29.90
2022-08-30T16:06:31.938Z,29.90
2022-08-30T16:09:00.268Z,29.80
2022-08-30T16:11:28.572Z,29.60
2022-08-30T16:13:57.859Z,29.50
2022-08-30T16:16:26.818Z,29.40
2022-08-30T16:18:55.525Z,29.40
2022-08-30T16:21:27.299Z,29.50
2022-08-30T16:23:57.520Z,29.30
2022-08-30T16:26:26.488Z,29.10
2022-08-30T16:28:55.097Z,28.50
2022-08-30T16:31:23.736Z,28.20
2022-08-30T16:33:53.055Z,28.20
2022-08-30T16:36:22.230Z,28.20
2022-08-30T16:38:55.961Z,28.20
2022-08-30T16:41:26.060Z,28.40
2022-08-30T16:43:54.698Z,28.20
2022-08-30T16:46:27.332Z,28.20
2022-08-30T16:48:57.399Z,28.20
2022-08-30T16:51:27.970Z,28.00
2022-08-30T16:53:58.500Z,27.90
2022-08-30T16:56:29.524Z,27.90
2022-08-30T16:59:02.671Z,27.90
2022-08-30T17:01:34.881Z,27.80
2022-08-30T17:04:04.499Z,27.70
2022-08-30T17:06:33.265Z,27.50
2022-08-30T17:09:05.553Z,27.40
2022-08-30T17:11:33.841Z,27.30
2022-08-30T17:14:02.107Z,27.30
2022-08-30T17:16:30.686Z,27.20
2022-08-30T17:19:00.933Z,27.10
2022-08-30T17:21:29.699Z,27.00
2022-08-30T17:24:01.925Z,26.90
2022-08-30T17:26:32.539Z,26.70
2022-08-30T17:29:01.108Z,26.70
2022-08-30T17:31:30.766Z,26.70
2022-08-30T17:34:03.537Z,26.70
2022-08-30T17:36:32.477Z,26.60
2022-08-30T17:39:00.645Z,26.60
2022-08-30T17:41:28.903Z,26.60
2022-08-30T17:43:58.215Z,26.50
2022-08-30T17:46:26.544Z,26.40
2022-08-30T17:49:01.169Z,26.40
2022-08-30T17:51:30.330Z,26.20
2022-08-30T17:53:58.632Z,26.20
2022-08-30T17:56:33.964Z,26.20
2022-08-30T17:59:07.888Z,26.10
2022-08-30T18:01:37.760Z,26.10
2022-08-30T18:04:06.604Z,26.00
2022-08-30T18:06:35.038Z,26.00
2022-08-30T18:09:03.443Z,25.90
2022-08-30T18:11:36.104Z,25.80
2022-08-30T18:14:05.602Z,25.60
2022-08-30T18:16:34.966Z,25.30
2022-08-30T18:19:06.259Z,25.10
2022-08-30T18:21:39.120Z,25.00
2022-08-30T18:24:08.915Z,24.80
2022-08-30T18:26:43.075Z,24.80
2022-08-30T18:29:12.477Z,24.60
2022-08-30T18:31:40.774Z,24.60
2022-08-30T18:34:12.219Z,24.60
2022-08-30T18:36:40.736Z,24.40
2022-08-30T18:39:09.957Z,24.40
2022-08-30T18:41:42.173Z,24.20
2022-08-30T18:44:27.365Z,24.10
2022-08-30T18:46:57.356Z,24.00
2022-08-30T18:49:25.901Z,24.10
2022-08-30T18:51:54.550Z,24.10
2022-08-30T18:54:23.202Z,24.10
2022-08-30T18:56:51.904Z,24.00
2022-08-30T18:59:21.505Z,24.10
2022-08-30T19:01:50.153Z,24.00
2022-08-30T19:04:22.524Z,24.00
2022-08-30T19:07:03.850Z,24.00
2022-08-30T19:09:31.885Z,23.80
2022-08-30T19:11:59.971Z,23.70
2022-08-30T19:14:29.476Z,23.60
2022-08-30T19:17:02.044Z,23.50
2022-08-30T19:19:32.866Z,23.30
2022-08-30T19:22:04.025Z,23.10
2022-08-30T19:24:34.558Z,23.00
2022-08-30T19:27:03.367Z,22.90
2022-08-30T19:29:32.670Z,23.00
2022-08-30T19:32:00.639Z,22.90
2022-08-30T19:34:28.808Z,22.80
2022-08-30T19:36:56.926Z,22.70
2022-08-30T19:39:25.307Z,22.70
2022-08-30T19:41:53.943Z,22.70
2022-08-30T19:44:22.059Z,22.70
2022-08-30T19:46:52.475Z,22.60
2022-08-30T19:49:21.831Z,22.60
2022-08-30T19:51:49.909Z,22.50
2022-08-30T19:54:18.417Z,22.60
2022-08-30T19:56:48.119Z,22.60
2022-08-30T19:59:18.030Z,22.60
2022-08-30T20:01:46.391Z,22.60
2022-08-30T20:04:16.002Z,22.50
2022-08-30T20:06:46.229Z,22.50
2022-08-30T20:09:15.166Z,22.40
2022-08-30T20:11:43.405Z,22.20
2022-08-30T20:14:13.549Z,22.20
2022-08-30T20:16:42.121Z,22.20
2022-08-30T20:19:11.816Z,22.20
2022-08-30T20:21:41.627Z,22.10
2022-08-30T20:24:10.064Z,22.10
2022-08-30T20:26:38.341Z,22.10
2022-08-30T20:29:07.886Z,22.20
2022-08-30T20:31:36.371Z,22.30
2022-08-30T20:34:05.883Z,22.20
2022-08-30T20:36:34.645Z,22.00
2022-08-30T20:39:09.604Z,21.90
2022-08-30T20:41:38.900Z,21.70
2022-08-30T20:44:11.819Z,21.60
2022-08-30T20:46:43.839Z,21.40
2022-08-30T20:49:12.221Z,21.50
2022-08-30T20:51:40.313Z,21.50
2022-08-30T20:54:10.692Z,21.40
2022-08-30T20:56:38.921Z,21.30
2022-08-30T20:59:07.371Z,21.20
2022-08-30T21:01:38.438Z,21.20
2022-08-30T21:04:08.070Z,21.20
2022-08-30T21:06:37.648Z,21.20
2022-08-30T21:09:06.712Z,21.20
2022-08-30T21:11:37.260Z,21.00
2022-08-30T21:14:07.474Z,20.80
2022-08-30T21:16:35.864Z,20.80
2022-08-30T21:19:04.557Z,20.80
2022-08-30T21:21:33.076Z,20.80
2022-08-30T21:24:06.563Z,20.70
2022-08-30T21:26:36.381Z,20.70
2022-08-30T21:29:05.265Z,20.70
2022-08-30T21:31:33.602Z,20.60
2022-08-30T21:34:01.668Z,20.60
2022-08-30T21:36:47.050Z,20.70
2022-08-30T21:39:20.960Z,20.60
2022-08-30T21:41:52.950Z,20.50
2022-08-30T21:44:24.165Z,20.40
2022-08-30T21:46:53.879Z,20.40
2022-08-30T21:49:24.313Z,20.40
2022-08-30T21:51:53.542Z,20.40
2022-08-30T21:54:22.295Z,20.30
2022-08-30T21:56:53.251Z,20.20
2022-08-30T21:59:22.229Z,20.20
2022-08-30T22:01:51.015Z,20.20
2022-08-30T22:04:23.073Z,20.10
2022-08-30T22:06:53.987Z,20.10
2022-08-30T22:09:25.282Z,20.10
2022-08-30T22:11:55.310Z,20.10
2022-08-30T22:14:25.030Z,20.10
2022-08-30T22:16:54.683Z,20.00
2022-08-30T22:19:23.587Z,20.00
2022-08-30T22:21:52.319Z,19.90
2022-08-30T22:24:23.471Z,19.90
2022-08-30T22:26:51.505Z,19.90
2022-08-30T22:29:21.831Z,20.00
2022-08-30T22:31:49.828Z,19.90
2022-08-30T22:34:19.618Z,19.90
2022-08-30T22:36:47.857Z,19.90
2022-08-30T22:39:15.963Z,19.90
2022-08-30T22:41:44.153Z,19.80
2022-08-30T22:44:13.031Z,19.80
2022-08-30T22:46:43.563Z,19.70
2022-08-30T22:49:12.357Z,19.70
2022-08-30T22:51:41.541Z,19.70
2022-08-30T22:54:10.806Z,19.70
2022-08-30T22:56:39.743Z,19.70
2022-08-30T22:59:08.700Z,19.70
2022-08-30T23:01:39.182Z,19.70
2022-08-30T23:04:09.757Z,19.60
2022-08-30T23:06:38.014Z,19.60
2022-08-30T23:09:07.195Z,19.60
2022-08-30T23:11:35.654Z,19.50
2022-08-30T23:14:04.069Z,19.60
2022-08-30T23:16:33.002Z,19.50
2022-08-30T23:19:01.529Z,19.50
2022-08-30T23:21:33.093Z,19.40
2022-08-30T23:24:18.844Z,19.50
2022-08-30T23:27:04.934Z,19.40
2022-08-30T23:29:51.438Z,19.50
2022-08-30T23:32:36.951Z,19.50
2022-08-30T23:35:29.031Z,19.50
2022-08-30T23:38:16.716Z,19.40
2022-08-30T23:41:02.650Z,19.50
2022-08-30T23:43:48.202Z,19.50
2022-08-30T23:46:34.015Z,19.50
2022-08-30T23:49:19.496Z,19.50
2022-08-30T23:52:04.812Z,19.40
2022-08-30T23:54:52.234Z,19.40
2022-08-30T23:57:43.561Z,19.40
